createdAt,value
2019-01-14T00:01:51.132Z,88.80
2019-01-14T00:04:30.242Z,89.10
2019-01-14T00:07:29.427Z,88.90
2019-01-14T00:10:11.552Z,89.10
2019-01-14T00:12:51.540Z,89.20
2019-01-14T00:15:30.695Z,89.20
2019-01-14T00:18:09.883Z,88.80
2019-01-14T00:20:50.258Z,88.90
2019-01-14T00:23:29.838Z,88.90
2019-01-14T00:25:56.119Z,88.90
2019-01-14T00:28:35.940Z,88.60
2019-01-14T00:31:15.037Z,88.60
2019-01-14T00:33:57.601Z,88.50
2019-01-14T00:36:37.120Z,88.40
2019-01-14T00:39:16.235Z,88.30
2019-01-14T00:41:55.410Z,88.90
2019-01-14T00:44:35.528Z,88.40
2019-01-14T00:47:17.752Z,88.40
2019-01-14T00:49:57.664Z,88.50
2019-01-14T00:52:37.010Z,88.70
2019-01-14T00:55:16.246Z,89.00
2019-01-14T00:57:56.256Z,89.30
2019-01-14T01:00:35.372Z,89.40
2019-01-14T01:03:14.587Z,89.10
2019-01-14T01:05:53.753Z,89.10
2019-01-14T01:08:33.017Z,88.90
2019-01-14T01:11:12.941Z,88.90
2019-01-14T01:13:51.971Z,89.20
2019-01-14T01:16:29.174Z,89.20
2019-01-14T01:19:15.235Z,89.10
2019-01-14T01:21:54.371Z,89.30
2019-01-14T01:24:33.544Z,89.70
2019-01-14T01:27:12.919Z,90.00
2019-01-14T01:29:51.953Z,90.00
2019-01-14T01:32:29.151Z,90.00
2019-01-14T01:35:18.117Z,89.80
2019-01-14T01:37:55.291Z,89.90
2019-01-14T01:40:35.314Z,89.70
2019-01-14T01:43:15.309Z,89.60
2019-01-14T01:45:57.452Z,90.10
2019-01-14T01:48:36.641Z,89.60
2019-01-14T01:51:15.740Z,89.70
2019-01-14T01:53:55.083Z,89.50
2019-01-14T01:56:35.142Z,89.40
2019-01-14T01:59:15.082Z,89.40
2019-01-14T02:01:54.259Z,89.40
2019-01-14T02:04:33.346Z,89.50
2019-01-14T02:07:13.281Z,89.70
2019-01-14T02:09:55.538Z,89.40
2019-01-14T02:12:34.723Z,89.30
2019-01-14T02:15:14.643Z,89.40
2019-01-14T02:17:56.684Z,89.50
2019-01-14T02:20:36.042Z,89.50
2019-01-14T02:23:16.038Z,89.50
2019-01-14T02:25:56.056Z,89.60
2019-01-14T02:28:38.240Z,89.40
2019-01-14T02:31:17.329Z,89.20
2019-01-14T02:33:57.408Z,89.40
2019-01-14T02:36:37.513Z,89.30
2019-01-14T02:39:19.662Z,89.30
2019-01-14T02:41:56.972Z,89.30
2019-01-14T02:44:43.093Z,89.00
2019-01-14T02:47:22.875Z,88.90
2019-01-14T02:50:02.120Z,88.60
2019-01-14T02:52:41.270Z,88.30
2019-01-14T02:55:20.332Z,88.20
2019-01-14T02:57:59.654Z,88.30
2019-01-14T03:00:38.729Z,87.90
2019-01-14T03:03:17.928Z,88.00
2019-01-14T03:05:57.134Z,87.60
2019-01-14T03:08:37.200Z,87.70
2019-01-14T03:11:19.200Z,87.60
2019-01-14T03:13:59.337Z,87.80
2019-01-14T03:16:41.557Z,88.10
2019-01-14T03:19:24.685Z,87.60
2019-01-14T03:22:07.327Z,87.10
2019-01-14T03:24:47.195Z,86.70
2019-01-14T03:27:26.411Z,86.40
2019-01-14T03:30:05.563Z,86.20
2019-01-14T03:32:44.812Z,86.30
2019-01-14T03:35:23.908Z,85.80
2019-01-14T03:38:03.165Z,85.60
2019-01-14T03:40:43.211Z,85.20
2019-01-14T03:43:23.192Z,84.80
2019-01-14T03:46:05.297Z,85.00
2019-01-14T03:48:44.627Z,85.20
2019-01-14T03:51:24.566Z,85.80
2019-01-14T03:54:04.044Z,85.00
2019-01-14T03:56:43.118Z,84.50
2019-01-14T03:59:22.338Z,85.00
2019-01-14T04:02:04.606Z,84.30
2019-01-14T04:04:46.691Z,84.60
2019-01-14T04:07:25.915Z,85.10
2019-01-14T04:10:05.058Z,84.80
2019-01-14T04:12:51.117Z,84.60
2019-01-14T04:15:30.491Z,84.40
2019-01-14T04:18:12.543Z,83.90
2019-01-14T04:20:52.612Z,83.90
2019-01-14T04:23:32.011Z,83.60
2019-01-14T04:26:11.132Z,83.70
2019-01-14T04:28:37.417Z,83.50
2019-01-14T04:31:23.474Z,83.80
2019-01-14T04:34:03.220Z,83.80
2019-01-14T04:36:42.274Z,83.60
2019-01-14T04:39:24.578Z,83.30
2019-01-14T04:42:04.424Z,83.50
2019-01-14T04:44:44.407Z,83.90
2019-01-14T04:47:24.226Z,82.90
2019-01-14T04:50:06.463Z,83.40
2019-01-14T04:52:45.555Z,83.60
2019-01-14T04:55:24.700Z,83.30
2019-01-14T04:58:03.766Z,82.80
2019-01-14T05:00:45.923Z,82.80
2019-01-14T05:03:27.961Z,83.00
2019-01-14T05:06:07.119Z,82.80
2019-01-14T05:08:46.170Z,82.50
2019-01-14T05:11:26.155Z,81.90
2019-01-14T05:14:26.263Z,82.50
2019-01-14T05:17:06.156Z,81.80
2019-01-14T05:19:48.183Z,82.10
2019-01-14T05:22:28.178Z,81.90
2019-01-14T05:25:07.305Z,81.90
2019-01-14T05:27:46.694Z,82.10
2019-01-14T05:30:26.815Z,82.10
2019-01-14T05:33:06.884Z,81.90
2019-01-14T05:35:49.108Z,82.10
2019-01-14T05:38:29.154Z,82.00
2019-01-14T05:41:08.304Z,82.20
2019-01-14T05:43:50.318Z,82.30
2019-01-14T05:46:29.395Z,82.10
2019-01-14T05:49:08.835Z,81.80
2019-01-14T05:51:48.032Z,82.10
2019-01-14T05:54:27.104Z,81.60
2019-01-14T05:57:06.298Z,81.60
2019-01-14T05:59:45.460Z,81.90
2019-01-14T06:02:24.614Z,81.50
2019-01-14T06:05:03.691Z,80.80
2019-01-14T06:07:45.686Z,81.10
2019-01-14T06:10:27.785Z,80.90
2019-01-14T06:13:07.051Z,80.90
2019-01-14T06:15:46.116Z,80.70
2019-01-14T06:18:26.140Z,81.30
2019-01-14T06:21:05.216Z,81.00
2019-01-14T06:23:44.573Z,80.90
2019-01-14T06:26:24.298Z,81.20
2019-01-14T06:29:23.494Z,81.00
2019-01-14T06:32:05.639Z,80.60
2019-01-14T06:34:45.679Z,80.30
2019-01-14T06:37:24.990Z,79.60
2019-01-14T06:40:04.243Z,79.70
2019-01-14T06:42:43.373Z,79.30
2019-01-14T06:45:22.518Z,78.50
2019-01-14T06:48:01.728Z,78.50
2019-01-14T06:50:40.807Z,78.70
2019-01-14T06:53:22.908Z,78.90
2019-01-14T06:56:04.817Z,79.60
2019-01-14T06:58:44.215Z,79.60
2019-01-14T07:01:26.267Z,79.80
2019-01-14T07:04:05.326Z,79.90
2019-01-14T07:06:44.423Z,80.20
2019-01-14T07:09:24.407Z,80.80
2019-01-14T07:12:06.569Z,80.30
2019-01-14T07:14:48.479Z,80.00
2019-01-14T07:17:27.633Z,79.30
2019-01-14T07:20:06.782Z,79.20
2019-01-14T07:22:45.989Z,78.80
2019-01-14T07:25:26.069Z,78.50
2019-01-14T07:28:05.288Z,78.20
2019-01-14T07:30:44.532Z,78.10
2019-01-14T07:33:23.940Z,77.90
2019-01-14T07:36:23.973Z,78.30
2019-01-14T07:39:04.131Z,77.90
2019-01-14T07:41:43.573Z,78.40
2019-01-14T07:44:25.502Z,77.90
2019-01-14T07:47:05.505Z,77.70
2019-01-14T07:50:04.550Z,77.90
2019-01-14T07:52:43.758Z,77.80
2019-01-14T07:55:26.144Z,77.80
2019-01-14T07:58:08.301Z,77.60
2019-01-14T08:00:50.343Z,77.60
2019-01-14T08:03:32.589Z,77.60
2019-01-14T08:06:14.623Z,77.90
2019-01-14T08:08:54.530Z,77.90
2019-01-14T08:11:53.688Z,78.40
2019-01-14T08:14:35.726Z,78.50
2019-01-14T08:17:17.913Z,78.50
2019-01-14T08:20:17.110Z,78.20
2019-01-14T08:22:56.360Z,79.00
2019-01-14T08:25:37.495Z,79.60
2019-01-14T08:28:17.533Z,79.80
2019-01-14T08:30:56.645Z,80.70
2019-01-14T08:33:35.736Z,80.20
2019-01-14T08:36:14.930Z,80.40
2019-01-14T08:38:54.233Z,80.10
2019-01-14T08:41:33.769Z,80.20
2019-01-14T08:44:16.348Z,79.70
2019-01-14T08:46:56.383Z,80.10
2019-01-14T08:49:35.608Z,79.30
2019-01-14T08:52:14.807Z,77.90
2019-01-14T08:54:53.927Z,77.80
2019-01-14T08:57:32.994Z,78.00
2019-01-14T09:00:12.224Z,78.40
2019-01-14T09:02:38.473Z,78.40
2019-01-14T09:05:24.588Z,78.20
2019-01-14T09:08:04.447Z,78.20
2019-01-14T09:11:04.269Z,78.60
2019-01-14T09:13:44.276Z,78.20
2019-01-14T09:16:24.331Z,79.20
2019-01-14T09:19:03.559Z,78.80
2019-01-14T09:21:43.671Z,78.80
2019-01-14T09:24:23.793Z,78.90
2019-01-14T09:27:22.893Z,78.60
2019-01-14T09:30:05.052Z,78.50
2019-01-14T09:32:45.028Z,78.60
2019-01-14T09:35:24.136Z,78.40
2019-01-14T09:38:04.138Z,78.50
2019-01-14T09:41:04.019Z,78.90
2019-01-14T09:44:03.945Z,78.50
2019-01-14T09:46:43.169Z,78.90
2019-01-14T09:49:23.141Z,77.90
2019-01-14T09:52:05.096Z,77.70
2019-01-14T09:54:47.462Z,78.30
2019-01-14T09:57:47.464Z,77.90
2019-01-14T10:00:29.567Z,78.00
2019-01-14T10:03:29.736Z,78.40
2019-01-14T10:06:08.860Z,78.70
2019-01-14T10:08:48.784Z,78.50
2019-01-14T10:11:27.927Z,78.60
2019-01-14T10:14:07.128Z,78.40
2019-01-14T10:16:46.403Z,78.40
2019-01-14T10:19:25.575Z,78.20
2019-01-14T10:22:05.813Z,77.90
2019-01-14T10:24:42.987Z,77.90
2019-01-14T10:27:29.041Z,77.40
2019-01-14T10:30:28.902Z,77.20
2019-01-14T10:33:08.876Z,77.40
2019-01-14T10:35:48.020Z,77.50
2019-01-14T10:38:27.093Z,77.40
2019-01-14T10:41:09.154Z,76.80
2019-01-14T10:43:51.315Z,76.50
2019-01-14T10:46:33.300Z,75.90
2019-01-14T10:49:13.211Z,76.00
2019-01-14T10:51:52.310Z,76.20
2019-01-14T10:54:34.611Z,76.30
2019-01-14T10:57:17.127Z,77.20
2019-01-14T10:59:57.118Z,77.80
2019-01-14T11:02:37.446Z,78.10
2019-01-14T11:05:17.497Z,78.00
2019-01-14T11:07:57.459Z,78.10
2019-01-14T11:10:39.426Z,78.10
2019-01-14T11:13:18.576Z,78.60
2019-01-14T11:15:57.657Z,78.60
2019-01-14T11:18:38.848Z,79.00
2019-01-14T11:21:17.971Z,78.70
2019-01-14T11:23:57.059Z,78.70
2019-01-14T11:26:56.268Z,78.80
2019-01-14T11:29:40.222Z,79.20
2019-01-14T11:32:22.502Z,79.20
2019-01-14T11:35:04.796Z,79.00
2019-01-14T11:37:46.862Z,77.90
2019-01-14T11:40:29.076Z,76.00
2019-01-14T11:43:11.299Z,75.50
2019-01-14T11:46:10.548Z,76.40
2019-01-14T11:48:52.557Z,77.10
2019-01-14T11:51:34.612Z,77.40
2019-01-14T11:54:13.800Z,78.90
2019-01-14T11:56:52.991Z,79.80
2019-01-14T11:59:32.245Z,80.10
2019-01-14T12:02:12.387Z,80.30
2019-01-14T12:04:52.391Z,80.30
2019-01-14T12:07:37.472Z,80.30
2019-01-14T12:10:19.630Z,80.60
2019-01-14T12:13:02.085Z,81.40
2019-01-14T12:15:42.105Z,81.40
2019-01-14T12:18:41.491Z,81.80
2019-01-14T12:21:23.536Z,81.30
2019-01-14T12:24:05.937Z,81.60
2019-01-14T12:26:47.997Z,82.30
2019-01-14T12:29:27.241Z,82.40
2019-01-14T12:32:07.225Z,81.80
2019-01-14T12:34:47.147Z,81.20
2019-01-14T12:37:26.362Z,79.80
2019-01-14T12:40:06.437Z,79.50
2019-01-14T12:43:06.520Z,79.10
2019-01-14T12:46:06.520Z,78.00
2019-01-14T12:48:48.653Z,76.30
2019-01-14T12:51:30.825Z,75.70
2019-01-14T12:54:12.876Z,75.10
2019-01-14T12:56:50.365Z,75.40
2019-01-14T12:59:36.582Z,75.40
2019-01-14T13:02:16.607Z,75.60
2019-01-14T13:05:16.120Z,73.70
2019-01-14T13:07:55.986Z,73.20
2019-01-14T13:10:38.330Z,71.90
2019-01-14T13:13:17.426Z,72.40
2019-01-14T13:16:17.141Z,71.30
2019-01-14T13:18:56.618Z,71.00
2019-01-14T13:21:38.839Z,70.80
2019-01-14T13:24:21.077Z,70.00
2019-01-14T13:27:03.181Z,69.70
2019-01-14T13:29:45.533Z,69.10
2019-01-14T13:32:24.783Z,67.00
2019-01-14T13:35:04.247Z,67.40
2019-01-14T13:37:43.461Z,66.70
2019-01-14T13:40:22.675Z,66.40
2019-01-14T13:43:01.860Z,66.30
2019-01-14T13:45:41.124Z,64.20
2019-01-14T13:48:20.273Z,64.00
2019-01-14T13:50:59.394Z,63.10
2019-01-14T13:53:58.518Z,62.60
2019-01-14T13:56:40.665Z,62.10
2019-01-14T13:59:22.919Z,61.90
2019-01-14T14:02:22.086Z,62.30
2019-01-14T14:05:22.146Z,62.00
2019-01-14T14:08:04.432Z,61.50
2019-01-14T14:11:03.666Z,61.30
2019-01-14T14:13:43.786Z,62.10
2019-01-14T14:16:25.962Z,60.70
2019-01-14T14:19:25.376Z,60.20
2019-01-14T14:22:11.547Z,60.50
2019-01-14T14:24:48.692Z,58.60
2019-01-14T14:27:47.862Z,59.20
2019-01-14T14:30:47.850Z,60.00
2019-01-14T14:33:30.024Z,60.00
2019-01-14T14:36:09.271Z,60.40
2019-01-14T14:38:51.591Z,60.20
2019-01-14T14:41:33.633Z,60.20
2019-01-14T14:44:13.724Z,61.10
2019-01-14T14:46:52.823Z,60.40
2019-01-14T14:49:33.052Z,59.80
2019-01-14T14:52:12.996Z,60.30
2019-01-14T14:54:52.346Z,59.20
2019-01-14T14:57:49.747Z,59.10
2019-01-14T15:00:35.839Z,59.90
2019-01-14T15:03:15.797Z,59.20
2019-01-14T15:06:15.174Z,59.40
2019-01-14T15:08:54.306Z,59.30
2019-01-14T15:11:53.714Z,59.90
2019-01-14T15:14:33.910Z,59.90
2019-01-14T15:17:13.943Z,59.80
2019-01-14T15:20:13.247Z,60.70
2019-01-14T15:22:53.158Z,60.90
2019-01-14T15:25:35.172Z,60.80
2019-01-14T15:28:14.257Z,61.00
2019-01-14T15:30:53.539Z,61.50
2019-01-14T15:33:32.538Z,61.80
2019-01-14T15:36:09.888Z,61.70
2019-01-14T15:38:55.972Z,61.70
2019-01-14T15:41:35.227Z,61.90
2019-01-14T15:44:14.563Z,62.60
2019-01-14T15:46:56.752Z,62.70
2019-01-14T15:49:38.984Z,63.10
2019-01-14T15:52:21.234Z,63.50
2019-01-14T15:55:20.395Z,63.90
2019-01-14T15:58:02.327Z,63.90
2019-01-14T16:00:44.634Z,64.60
2019-01-14T16:03:26.808Z,64.40
2019-01-14T16:05:55.930Z,64.50
2019-01-14T16:12:46.893Z,65.30
2019-01-14T16:15:26.891Z,64.60
2019-01-14T16:18:08.813Z,64.90
2019-01-14T16:20:48.827Z,64.70
2019-01-14T16:23:28.228Z,64.70
2019-01-14T16:26:08.302Z,64.90
2019-01-14T16:28:47.507Z,65.00
2019-01-14T16:31:26.734Z,64.80
2019-01-14T16:34:05.867Z,65.00
2019-01-14T16:36:45.861Z,65.10
2019-01-14T16:39:25.009Z,65.40
2019-01-14T16:42:04.163Z,65.80
2019-01-14T16:44:43.303Z,65.80
2019-01-14T16:47:24.007Z,66.10
2019-01-14T16:50:03.453Z,66.30
2019-01-14T16:53:02.683Z,66.50
2019-01-14T16:56:01.978Z,66.40
2019-01-14T16:59:01.234Z,66.40
2019-01-14T17:01:43.466Z,66.30
2019-01-14T17:04:25.466Z,66.40
2019-01-14T17:07:04.501Z,66.40
2019-01-14T17:09:43.708Z,66.80
2019-01-14T17:12:22.795Z,67.10
2019-01-14T17:15:02.246Z,66.90
2019-01-14T17:17:41.425Z,67.40
2019-01-14T17:20:21.417Z,67.40
2019-01-14T17:23:00.758Z,67.30
2019-01-14T17:25:39.864Z,67.80
2019-01-14T17:28:18.978Z,68.00
2019-01-14T17:30:58.343Z,67.70
2019-01-14T17:33:37.525Z,67.60
2019-01-14T17:36:17.757Z,67.90
2019-01-14T17:38:56.880Z,67.50
2019-01-14T17:41:36.883Z,67.40
2019-01-14T17:44:18.759Z,67.00
2019-01-14T17:46:58.047Z,67.40
2019-01-14T17:49:37.114Z,66.90
2019-01-14T17:52:16.150Z,67.10
2019-01-14T17:54:56.012Z,67.10
2019-01-14T17:57:42.244Z,67.30
2019-01-14T18:00:41.576Z,67.10
2019-01-14T18:03:40.794Z,67.10
2019-01-14T18:06:40.118Z,67.10
2019-01-14T18:09:39.255Z,67.70
2019-01-14T18:12:38.475Z,67.30
2019-01-14T18:15:38.466Z,67.40
2019-01-14T18:18:17.604Z,68.40
2019-01-14T18:20:57.511Z,67.90
2019-01-14T18:23:37.453Z,68.10
2019-01-14T18:26:16.632Z,68.40
2019-01-14T18:28:55.815Z,68.60
2019-01-14T18:31:36.146Z,68.60
2019-01-14T18:34:16.125Z,68.60
2019-01-14T18:37:16.179Z,68.70
2019-01-14T18:40:15.408Z,68.80
2019-01-14T18:42:57.329Z,69.00
2019-01-14T18:45:39.654Z,69.10
2019-01-14T18:48:21.760Z,69.20
2019-01-14T18:51:03.751Z,69.20
2019-01-14T18:53:43.871Z,69.40
2019-01-14T18:56:23.866Z,69.50
2019-01-14T18:59:03.104Z,69.70
2019-01-14T19:01:43.198Z,69.80
2019-01-14T19:04:22.519Z,70.20
2019-01-14T19:07:02.564Z,70.00
2019-01-14T19:09:42.361Z,70.00
2019-01-14T19:12:41.760Z,70.30
2019-01-14T19:15:23.770Z,71.50
2019-01-14T19:18:03.777Z,70.80
2019-01-14T19:20:42.964Z,70.90
2019-01-14T19:23:22.174Z,71.10
2019-01-14T19:26:01.474Z,71.20
2019-01-14T19:28:40.772Z,70.90
2019-01-14T19:31:19.930Z,71.10
2019-01-14T19:33:59.230Z,71.30
2019-01-14T19:36:39.127Z,71.20
2019-01-14T19:39:21.112Z,71.00
2019-01-14T19:42:03.052Z,71.30
2019-01-14T19:44:42.213Z,71.50
2019-01-14T19:47:21.376Z,71.50
2019-01-14T19:50:00.507Z,71.60
2019-01-14T19:52:40.528Z,71.90
2019-01-14T19:55:22.592Z,72.10
2019-01-14T19:58:04.770Z,72.40
2019-01-14T20:00:46.835Z,72.40
2019-01-14T20:03:26.867Z,72.40
2019-01-14T20:06:06.282Z,72.80
2019-01-14T20:08:48.149Z,73.00
2019-01-14T20:11:28.116Z,73.00
2019-01-14T20:14:07.467Z,73.10
2019-01-14T20:16:50.251Z,73.20
2019-01-14T20:19:29.341Z,73.20
2019-01-14T20:22:09.352Z,73.40
2019-01-14T20:24:51.335Z,73.50
2019-01-14T20:27:33.383Z,73.90
2019-01-14T20:30:32.840Z,74.40
2019-01-14T20:33:15.147Z,74.30
2019-01-14T20:36:14.415Z,74.50
2019-01-14T20:38:56.485Z,74.50
2019-01-14T20:41:36.516Z,74.50
2019-01-14T20:44:15.701Z,74.70
2019-01-14T20:46:52.937Z,74.80
2019-01-14T20:50:14.335Z,75.00
2019-01-14T20:53:23.864Z,75.60
2019-01-14T20:56:22.953Z,75.00
2019-01-14T20:59:05.109Z,75.20
2019-01-14T21:01:44.190Z,75.30
2019-01-14T21:04:23.509Z,75.50
2019-01-14T21:07:03.654Z,75.70
2019-01-14T21:09:43.723Z,75.70
2019-01-14T21:12:23.619Z,75.90
2019-01-14T21:15:23.052Z,76.00
2019-01-14T21:18:02.176Z,76.00
2019-01-14T21:20:41.347Z,76.00
2019-01-14T21:23:21.359Z,76.20
2019-01-14T21:26:01.369Z,76.30
2019-01-14T21:28:40.457Z,76.20
2019-01-14T21:31:39.784Z,76.20
2019-01-14T21:34:19.075Z,76.10
2019-01-14T21:36:59.088Z,76.30
2019-01-14T21:39:58.234Z,76.50
2019-01-14T21:42:40.268Z,76.50
2019-01-14T21:45:21.857Z,76.60
2019-01-14T21:48:01.231Z,76.40
2019-01-14T21:50:41.225Z,76.60
2019-01-14T21:53:40.568Z,76.70
2019-01-14T21:56:20.465Z,76.50
2019-01-14T21:59:02.511Z,76.30
2019-01-14T22:01:41.668Z,76.40
2019-01-14T22:04:21.722Z,76.90
2019-01-14T22:07:00.860Z,77.10
2019-01-14T22:09:41.054Z,77.00
2019-01-14T22:12:21.008Z,77.00
2019-01-14T22:15:00.973Z,77.00
2019-01-14T22:17:42.940Z,77.20
2019-01-14T22:20:22.186Z,77.20
2019-01-14T22:23:01.387Z,77.20
2019-01-14T22:25:40.569Z,77.20
2019-01-14T22:28:19.928Z,77.30
2019-01-14T22:30:59.112Z,77.20
2019-01-14T22:33:38.992Z,77.10
2019-01-14T22:36:21.032Z,77.10
2019-01-14T22:39:01.035Z,77.00
2019-01-14T22:41:45.740Z,77.20
2019-01-14T22:44:22.299Z,77.20
2019-01-14T22:47:01.531Z,76.90
2019-01-14T22:49:43.839Z,77.00
2019-01-14T22:52:23.919Z,77.00
2019-01-14T22:55:24.880Z,77.00
2019-01-14T22:58:04.050Z,77.10
2019-01-14T23:00:45.111Z,77.20
2019-01-14T23:03:24.274Z,77.10
2019-01-14T23:06:06.635Z,77.10
2019-01-14T23:08:46.211Z,77.10
2019-01-14T23:11:25.676Z,77.00
2019-01-14T23:14:04.827Z,77.00
2019-01-14T23:16:44.699Z,76.90
2019-01-14T23:19:24.735Z,77.00
2019-01-14T23:22:03.915Z,76.70
2019-01-14T23:24:43.958Z,77.00
2019-01-14T23:27:23.203Z,77.10
2019-01-14T23:30:03.222Z,77.20
2019-01-14T23:32:42.425Z,77.30
2019-01-14T23:35:22.441Z,77.20
2019-01-14T23:38:01.516Z,77.20
2019-01-14T23:40:40.738Z,77.50
2019-01-14T23:43:20.533Z,77.10
2019-01-14T23:46:00.543Z,77.40
2019-01-14T23:48:39.646Z,77.20
2019-01-14T23:51:21.668Z,77.30
2019-01-14T23:54:00.939Z,77.30
2019-01-14T23:56:40.818Z,77.40
2019-01-14T23:59:20.887Z,77.30
